Time;durP1;ratioP1;P1;durP2;ratioP2;P2;SDS_P1;SDS_P2;PMS_P1;PMS_P2;Temp;Humidity;BMP_temperature;BMP_pressure;BME280_temperature;BME280_humidity;BME280_pressure;Samples;Min_cycle;Max_cycle;Signal;HPM_P1;HPM_P2
2022/04/18 00:00:25;;;;;;;1.20;0.60;;;-0.10;1.40;;;0.76;100.00;95705.47;644775;212;31622;-73
2022/04/18 00:03:06;;;;;;;2.10;0.50;;;-0.20;1.40;;;0.81;100.00;95702.58;645947;213;34556;-75
2022/04/18 00:05:48;;;;;;;0.80;0.70;;;-0.20;1.40;;;0.74;100.00;95699.48;646395;212;31616;-75
2022/04/18 00:08:32;;;;;;;1.33;0.55;;;-0.30;1.40;;;0.60;100.00;95702.99;637112;216;31649;-74
2022/04/18 00:11:13;;;;;;;1.10;1.00;;;-0.40;1.40;;;0.53;100.00;95698.28;647488;216;42893;-74
2022/04/18 00:13:55;;;;;;;1.00;0.90;;;-0.40;1.40;;;0.44;100.00;95696.93;646822;216;31625;-74
2022/04/18 00:16:37;;;;;;;0.82;0.77;;;-0.40;1.40;;;0.51;100.00;95694.08;648902;212;31619;-73
2022/04/18 00:19:19;;;;;;;1.00;0.90;;;-0.40;1.40;;;0.50;100.00;95690.06;645117;212;42135;-73
2022/04/18 00:22:01;;;;;;;2.30;2.05;;;-0.50;1.40;;;0.51;100.00;95689.81;648321;216;31569;-73
2022/04/18 00:24:44;;;;;;;0.60;0.60;;;-0.50;1.40;;;0.40;100.00;95689.64;646724;216;31657;-73
2022/04/18 00:27:26;;;;;;;1.02;0.68;;;-0.40;1.40;;;0.41;100.00;95694.25;645781;216;31588;-73
2022/04/18 00:30:08;;;;;;;0.52;0.52;;;-0.50;1.40;;;0.30;100.00;95692.39;648701;212;31497;-74
2022/04/18 00:32:49;;;;;;;0.60;0.60;;;-0.60;1.40;;;0.13;100.00;95688.41;645425;212;31498;-73
2022/04/18 00:35:52;;;;;;;0.70;0.70;;;-0.90;1.40;;;0.02;100.00;95685.35;620662;222;31915;-74
2022/04/18 00:38:36;;;;;;;0.68;0.68;;;-1.00;1.40;;;0.06;100.00;95686.66;646560;212;31683;-73
2022/04/18 00:41:19;;;;;;;1.10;1.00;;;-0.80;1.40;;;0.09;100.00;95679.91;632399;217;31698;-74
2022/04/18 00:44:00;;;;;;;0.65;0.65;;;-0.80;1.40;;;0.13;100.00;95677.07;647046;216;31611;-73
2022/04/18 00:46:42;;;;;;;0.70;0.70;;;-0.70;1.40;;;0.19;100.00;95673.61;621827;226;32207;-73
2022/04/18 00:49:24;;;;;;;1.10;0.80;;;-0.70;1.40;;;0.24;100.00;95670.45;620282;226;31863;-73
2022/04/18 00:52:06;;;;;;;1.20;0.70;;;-0.60;1.40;;;0.21;100.00;95671.25;650631;212;31686;-75
2022/04/18 00:54:49;;;;;;;1.10;1.00;;;-0.60;1.40;;;0.21;100.00;95661.91;649211;216;31562;-73
2022/04/18 00:57:30;;;;;;;2.00;0.70;;;-0.70;1.40;;;0.15;100.00;95660.47;646876;216;31505;-74
2022/04/18 01:00:14;;;;;;;0.57;0.57;;;-0.80;1.40;;;0.23;100.00;95659.50;646315;212;42730;-72
2022/04/18 01:02:55;;;;;;;0.70;0.70;;;-0.80;1.40;;;0.15;100.00;95655.52;647422;216;31874;-73
2022/04/18 01:05:37;;;;;;;1.25;1.00;;;-0.70;1.40;;;0.15;100.00;95663.67;647578;212;31567;-73
2022/04/18 01:08:19;;;;;;;1.60;1.27;;;-0.80;1.40;;;0.13;100.00;95649.41;641905;212;32319;-73
2022/04/18 01:11:00;;;;;;;0.70;0.60;;;-0.70;1.40;;;0.08;100.00;95656.27;648245;216;31677;-73
2022/04/18 01:13:48;;;;;;;0.90;0.60;;;-0.90;1.40;;;0.04;100.00;95650.43;648352;216;32006;-74
2022/04/18 01:16:31;;;;;;;1.00;0.60;;;-1.00;1.40;;;0.16;100.00;95649.73;648460;213;31690;-73
2022/04/18 01:19:12;;;;;;;0.40;0.40;;;-1.00;1.40;;;0.04;100.00;95650.80;646011;212;31474;-73
2022/04/18 01:21:55;;;;;;;0.90;0.80;;;-1.10;1.40;;;-0.05;100.00;95648.72;647260;212;31517;-74
2022/04/18 01:30:14;;;;;;;1.00;0.70;;;-1.50;1.40;;;-0.64;100.00;95637.05;645843;216;32016;-74
2022/04/18 01:32:56;;;;;;;0.80;0.60;;;-1.60;1.40;;;-0.58;100.00;95640.77;648660;213;32024;-74
2022/04/18 01:35:51;;;;;;;0.50;0.50;;;-1.50;1.40;;;-0.64;100.00;95639.13;647179;213;31904;-72
2022/04/18 01:38:33;;;;;;;1.12;1.12;;;-1.60;1.40;;;-0.71;100.00;95637.36;624162;225;31972;-74
2022/04/18 01:41:15;;;;;;;1.10;1.00;;;-1.50;1.40;;;-0.63;100.00;95631.17;645811;216;42609;-74
2022/04/18 01:43:57;;;;;;;1.10;0.60;;;-1.40;1.40;;;-0.41;100.00;95629.62;649876;214;32495;-74
2022/04/18 01:46:39;;;;;;;0.60;0.60;;;-1.30;1.40;;;-0.41;100.00;95629.05;620206;222;31923;-74
2022/04/18 01:49:20;;;;;;;1.60;1.20;;;-1.10;1.40;;;-0.33;100.00;95630.80;648646;216;31639;-73
2022/04/18 01:52:06;;;;;;;1.20;0.80;;;-1.00;1.40;;;-0.33;100.00;95628.45;647515;216;31612;-73
2022/04/18 01:54:48;;;;;;;2.50;0.60;;;-1.10;1.40;;;-0.36;100.00;95626.95;650489;216;31594;-72
2022/04/18 01:57:30;;;;;;;4.50;0.60;;;-1.20;1.40;;;-0.34;100.00;95623.75;647129;216;31525;-74
2022/04/18 02:00:14;;;;;;;1.08;0.70;;;-1.30;1.40;;;-0.35;100.00;95617.23;617785;226;31917;-73
2022/04/18 02:02:56;;;;;;;1.60;0.80;;;-1.40;1.40;;;-0.41;100.00;95611.95;647279;212;31985;-73
2022/04/18 02:05:39;;;;;;;1.20;1.10;;;-1.40;1.40;;;-0.38;100.00;95609.88;651935;212;31556;-74
2022/04/18 02:08:19;;;;;;;0.50;0.50;;;-1.40;1.40;;;-0.37;100.00;95608.61;641305;212;32741;-73
2022/04/18 02:11:01;;;;;;;0.90;0.60;;;-1.40;1.40;;;-0.33;100.00;95604.06;648691;216;31933;-73
2022/04/18 02:13:43;;;;;;;1.70;0.80;;;-1.30;1.40;;;-0.43;100.00;95605.77;649329;216;31527;-74
2022/04/18 02:16:28;;;;;;;0.65;0.60;;;-1.30;1.40;;;-0.43;100.00;95612.11;648392;212;31493;-74
2022/04/18 02:19:06;;;;;;;0.93;0.80;;;-1.30;1.40;;;-0.34;100.00;95605.36;646282;216;31524;-73
2022/04/18 02:21:48;;;;;;;0.40;0.40;;;-1.30;1.40;;;-0.51;100.00;95597.06;646847;216;31574;-73
2022/04/18 02:24:30;;;;;;;1.23;0.50;;;-1.30;1.40;;;-0.70;100.00;95593.94;652929;212;31826;-73
2022/04/18 02:27:12;;;;;;;2.50;0.70;;;-1.50;1.40;;;-0.78;100.00;95588.94;649675;216;32096;-73
2022/04/18 02:29:53;;;;;;;0.55;0.55;;;-1.60;1.40;;;-0.75;100.00;95587.04;649247;212;31566;-75
2022/04/18 02:35:55;;;;;;;0.70;0.50;;;-1.70;1.40;;;-0.80;100.00;95581.16;647442;212;32107;-73
2022/04/18 02:38:36;;;;;;;1.20;0.73;;;-1.70;1.40;;;-0.76;100.00;95577.64;646922;216;31554;-74
2022/04/18 02:41:18;;;;;;;0.80;0.80;;;-1.60;1.40;;;-0.69;100.00;95577.98;646162;216;31521;-74
2022/04/18 02:44:00;;;;;;;0.50;0.50;;;-1.60;1.40;;;-0.73;100.00;95571.52;648012;212;31599;-74
2022/04/18 02:46:42;;;;;;;1.85;1.52;;;-1.50;1.40;;;-0.74;100.00;95566.40;646532;212;31502;-74
2022/04/18 02:49:24;;;;;;;0.50;0.43;;;-1.60;1.40;;;-0.63;100.00;95573.50;647318;216;31519;-74
2022/04/18 02:52:05;;;;;;;1.67;1.48;;;-1.50;1.40;;;-0.70;100.00;95574.23;645860;216;31539;-75
2022/04/18 02:54:47;;;;;;;0.60;0.60;;;-1.70;1.40;;;-0.70;100.00;95566.63;648578;216;31681;-74
2022/04/18 02:57:29;;;;;;;2.00;1.30;;;-1.70;1.40;;;-0.67;100.00;95564.25;650864;216;31621;-73
2022/04/18 03:00:12;;;;;;;0.80;0.80;;;-1.60;1.40;;;-0.76;100.00;95559.72;648065;216;42179;-73
2022/04/18 03:02:54;;;;;;;0.68;0.68;;;-1.70;1.40;;;-0.80;100.00;95562.98;649119;216;31538;-74
2022/04/18 03:05:36;;;;;;;1.60;0.60;;;-1.70;1.40;;;-0.82;100.00;95557.87;646403;216;31531;-75
2022/04/18 03:08:18;;;;;;;0.95;0.80;;;-1.80;1.40;;;-0.84;100.00;95560.00;641136;212;32058;-75
2022/04/18 03:11:03;;;;;;;0.90;0.50;;;-1.80;1.40;;;-0.74;100.00;95556.43;643755;214;31622;-74
2022/04/18 03:13:45;;;;;;;0.50;0.50;;;-1.70;1.40;;;-0.95;100.00;95551.95;649863;212;31542;-74
2022/04/18 03:16:28;;;;;;;0.50;0.50;;;-1.90;1.40;;;-0.93;100.00;95554.17;647929;216;31895;-74
2022/04/18 03:19:09;;;;;;;0.60;0.60;;;-1.80;1.40;;;-0.96;100.00;95550.13;648473;212;42700;-73
2022/04/18 03:21:52;;;;;;;2.62;1.05;;;-2.00;1.40;;;-1.05;100.00;95541.11;650155;212;32102;-74
2022/04/18 03:24:37;;;;;;;1.10;0.60;;;-2.10;1.40;;;-1.10;100.00;95539.41;647523;216;31513;-74
2022/04/18 03:29:56;;;;;;;1.70;0.80;;;-2.10;1.40;;;-1.06;100.00;95531.67;647089;212;31545;-74
2022/04/18 03:32:37;;;;;;;0.50;0.50;;;-2.00;1.40;;;-1.07;100.00;95531.59;650653;216;32223;-73
2022/04/18 03:41:25;;;;;;;0.50;0.50;;;-2.00;1.40;;;-1.15;100.00;95523.09;651103;216;31500;-74
2022/04/18 03:44:07;;;;;;;0.80;0.80;;;-2.00;1.40;;;-1.08;100.00;95517.91;647801;212;31646;-72
2022/04/18 03:46:48;;;;;;;1.80;0.70;;;-1.90;1.40;;;-0.89;100.00;95518.27;648596;216;31521;-73
2022/04/18 03:49:30;;;;;;;1.20;0.80;;;-1.90;1.40;;;-0.97;100.00;95522.11;647998;216;31521;-73
2022/04/18 03:52:12;;;;;;;1.20;0.80;;;-1.80;1.40;;;-1.02;100.00;95517.23;616960;226;31918;-74
2022/04/18 03:54:53;;;;;;;0.80;0.73;;;-1.80;1.40;;;-1.06;100.00;95520.46;645307;216;31558;-72
2022/04/18 03:57:35;;;;;;;1.30;1.00;;;-1.90;1.40;;;-1.04;100.00;95516.73;647747;212;31522;-74
2022/04/18 04:00:17;;;;;;;0.73;0.70;;;-2.00;1.40;;;-1.10;100.00;95517.48;648619;216;31634;-73
2022/04/18 04:03:01;;;;;;;0.95;0.80;;;-2.00;1.40;;;-1.17;100.00;95521.22;646028;212;31541;-73
2022/04/18 04:05:43;;;;;;;0.40;0.40;;;-2.10;1.40;;;-1.22;100.00;95515.74;649813;212;31496;-73
2022/04/18 04:08:25;;;;;;;0.80;0.80;;;-2.20;1.40;;;-1.23;100.00;95517.94;651550;212;31510;-74
2022/04/18 04:11:06;;;;;;;0.60;0.60;;;-2.20;1.40;;;-1.22;100.00;95519.16;644363;212;31521;-72
2022/04/18 04:13:48;;;;;;;1.40;1.30;;;-2.20;1.40;;;-1.23;100.00;95518.38;646813;216;31465;-74
2022/04/18 04:17:39;;;;;;;0.40;0.40;;;-2.20;1.40;;;-1.25;100.00;95513.05;621694;226;31875;-73
2022/04/18 04:20:22;;;;;;;1.90;0.80;;;-2.20;1.40;;;-1.25;100.00;95515.41;648692;212;31557;-73
2022/04/18 04:23:05;;;;;;;2.80;0.90;;;-2.20;1.40;;;-1.22;100.00;95516.64;647748;216;31457;-73
2022/04/18 04:25:47;;;;;;;1.15;0.75;;;-2.20;1.40;;;-1.26;100.00;95514.85;647844;216;31544;-74
2022/04/18 04:28:28;;;;;;;0.80;0.80;;;-2.20;1.40;;;-1.41;100.00;95511.16;646055;216;31737;-73
2022/04/18 04:31:10;;;;;;;2.83;1.10;;;-2.40;1.40;;;-1.53;100.00;95508.75;649037;216;31557;-72
2022/04/18 04:35:51;;;;;;;0.90;0.60;;;-2.40;1.40;;;-1.53;100.00;95509.23;648582;212;31530;-74
2022/04/18 04:38:33;;;;;;;0.80;0.70;;;-2.40;1.40;;;-1.45;100.00;95515.63;647108;212;31920;-74
2022/04/18 04:41:16;;;;;;;2.00;0.60;;;-2.40;1.40;;;-1.37;100.00;95511.47;646747;216;33270;-74
2022/04/18 04:44:02;;;;;;;0.80;0.50;;;-2.30;1.40;;;-1.30;100.00;95514.06;647501;216;31512;-74
2022/04/18 04:46:45;;;;;;;0.60;0.60;;;-2.20;1.40;;;-1.29;100.00;95508.50;620554;222;31924;-73
2022/04/18 04:49:26;;;;;;;1.30;0.80;;;-2.20;1.40;;;-1.17;100.00;95515.75;652350;216;31737;-74
2022/04/18 04:52:08;;;;;;;0.50;0.50;;;-2.10;1.40;;;-1.10;100.00;95515.56;645950;212;31624;-73
2022/04/18 04:57:24;;;;;;;0.80;0.73;;;-1.90;1.40;;;-0.68;100.00;95507.64;640017;215;31569;-73
2022/04/18 05:00:09;;;;;;;0.82;0.73;;;-1.70;1.40;;;-0.83;100.00;95511.48;651376;212;34370;-73
2022/04/18 05:02:51;;;;;;;1.20;0.80;;;-1.80;1.40;;;-0.93;100.00;95513.46;647466;212;31737;-73
2022/04/18 05:05:33;;;;;;;2.03;1.15;;;-2.00;1.40;;;-0.88;100.00;95511.95;649145;212;31535;-73
2022/04/18 05:08:15;;;;;;;0.70;0.60;;;-1.90;1.40;;;-0.86;100.00;95509.45;612911;222;32012;-74
2022/04/18 05:10:59;;;;;;;0.40;0.40;;;-1.80;1.40;;;-0.74;100.00;95510.02;648012;216;31514;-74
2022/04/18 05:13:38;;;;;;;1.00;0.82;;;-1.60;1.40;;;-0.65;100.00;95515.21;649416;216;31486;-73
2022/04/18 05:16:24;;;;;;;0.60;0.60;;;-1.60;1.40;;;-0.57;100.00;95511.14;646379;212;31554;-73
2022/04/18 05:19:05;;;;;;;0.80;0.60;;;-1.50;1.40;;;-0.44;100.00;95513.25;623299;222;32492;-73
2022/04/18 05:21:46;;;;;;;1.00;0.90;;;-1.40;1.40;;;-0.27;100.00;95523.22;647958;212;32096;-73
2022/04/18 05:24:28;;;;;;;0.40;0.40;;;-1.30;1.40;;;-0.13;100.00;95514.11;647169;212;32154;-73
2022/04/18 05:27:15;;;;;;;0.60;0.60;;;-1.10;1.40;;;0.08;100.00;95514.56;649253;216;31501;-74
2022/04/18 05:29:52;;;;;;;1.25;1.15;;;-0.80;1.40;;;0.26;100.00;95513.73;618573;222;31874;-73
2022/04/18 05:32:35;;;;;;;1.40;0.80;;;-0.70;1.40;;;0.60;100.00;95509.98;650577;212;31528;-74
2022/04/18 05:35:52;;;;;;;1.30;0.90;;;-0.30;1.40;;;0.88;100.00;95517.84;648347;216;31523;-74
2022/04/18 05:38:34;;;;;;;2.30;1.00;;;-0.10;1.40;;;1.13;100.00;95519.63;645395;212;42235;-75
2022/04/18 05:41:16;;;;;;;0.80;0.80;;;0.10;1.40;;;1.27;100.00;95524.12;646537;216;31564;-74
2022/04/18 05:43:57;;;;;;;0.95;0.85;;;0.30;1.40;;;1.33;100.00;95522.00;649427;212;31492;-74
2022/04/18 05:46:39;;;;;;;2.45;1.10;;;0.30;1.40;;;1.53;100.00;95520.66;619507;222;31877;-74
2022/04/18 05:49:21;;;;;;;1.45;0.85;;;0.50;1.40;;;1.59;100.00;95516.77;647489;216;31512;-74
2022/04/18 05:52:05;;;;;;;1.37;1.27;;;0.50;1.40;;;1.70;100.00;95514.28;646107;216;31792;-74
2022/04/18 05:54:47;;;;;;;0.80;0.80;;;0.60;1.40;;;1.79;100.00;95510.06;646179;216;31549;-75
2022/04/18 05:57:30;;;;;;;2.15;1.33;;;0.70;1.40;;;1.96;100.00;95512.30;649460;216;31546;-75
2022/04/18 06:00:14;;;;;;;3.00;1.00;;;0.80;1.40;;;2.11;100.00;95518.43;646768;216;31564;-75
2022/04/18 06:02:59;;;;;;;1.15;0.90;;;1.00;1.40;;;2.24;100.00;95511.22;625661;222;31846;-74
2022/04/18 06:05:43;;;;;;;2.10;1.50;;;1.10;1.40;;;2.34;100.00;95516.09;648798;216;31542;-75
2022/04/18 06:08:25;;;;;;;3.30;1.40;;;1.30;1.40;;;2.44;100.00;95513.39;612272;226;32831;-74
2022/04/18 06:11:06;;;;;;;1.17;1.10;;;1.40;1.40;;;2.61;100.00;95519.05;650616;215;31541;-75
2022/04/18 06:13:48;;;;;;;1.00;0.82;;;1.60;1.40;;;2.78;100.00;95511.98;648842;216;31854;-75
2022/04/18 06:16:30;;;;;;;1.92;1.65;;;1.70;1.40;;;3.00;100.00;95513.52;646951;212;31780;-74
2022/04/18 06:19:11;;;;;;;1.40;1.00;;;1.90;1.40;;;3.25;100.00;95511.76;649083;212;31774;-74
2022/04/18 06:21:53;;;;;;;1.80;1.70;;;2.10;1.40;;;3.45;100.00;95513.80;622131;222;31981;-76
2022/04/18 06:24:35;;;;;;;2.00;1.70;;;2.30;1.40;;;3.63;100.00;95512.13;651055;212;31686;-75
2022/04/18 06:27:17;;;;;;;2.60;2.20;;;2.50;1.40;;;3.75;100.00;95505.35;650245;216;31644;-75
2022/04/18 06:29:59;;;;;;;1.40;1.15;;;2.60;1.40;;;3.91;100.00;95505.56;646376;216;31759;-73
2022/04/18 06:32:40;;;;;;;2.30;1.40;;;3.00;1.40;;;4.11;100.00;95504.13;620163;226;31902;-74
2022/04/18 06:35:51;;;;;;;1.55;1.37;;;3.30;1.40;;;4.35;100.00;95509.12;619896;222;32040;-75
2022/04/18 06:38:32;;;;;;;1.80;1.65;;;3.50;1.40;;;4.64;100.00;95498.64;646548;216;31572;-73
2022/04/18 06:41:14;;;;;;;3.17;1.90;;;3.80;1.40;;;5.03;100.00;95500.59;647842;216;35865;-74
2022/04/18 06:43:56;;;;;;;1.95;1.62;;;4.20;1.40;;;5.28;100.00;95504.48;620754;222;31919;-74
2022/04/18 06:46:37;;;;;;;1.10;1.00;;;4.60;1.40;;;5.44;100.00;95500.84;653891;212;23542;-75
2022/04/18 06:49:19;;;;;;;1.33;1.20;;;4.90;1.40;;;5.81;100.00;95499.86;623155;225;31971;-75
2022/04/18 06:52:01;;;;;;;2.15;1.50;;;5.00;1.40;;;5.84;100.00;95496.52;646748;216;32157;-74
2022/04/18 06:54:42;;;;;;;2.20;1.10;;;5.20;1.40;;;6.03;100.00;95503.34;648648;212;31852;-73
2022/04/18 06:57:29;;;;;;;1.45;1.35;;;5.50;1.40;;;6.29;100.00;95505.75;649155;216;31573;-75
2022/04/18 07:00:11;;;;;;;1.40;1.30;;;5.60;1.40;;;6.38;98.13;95503.95;645611;216;32147;-75
2022/04/18 07:02:53;;;;;;;2.10;1.30;;;5.80;1.40;;;6.71;97.73;95500.92;647527;212;31558;-74
2022/04/18 07:05:35;;;;;;;1.40;1.30;;;6.00;1.40;;;6.99;97.01;95500.17;648004;216;31661;-75
2022/04/18 07:08:19;;;;;;;2.35;1.50;;;6.30;1.40;;;7.28;94.72;95499.95;644191;216;31707;-77
2022/04/18 07:11:12;;;;;;;1.80;1.70;;;6.50;1.40;;;7.35;89.29;95499.95;647549;216;31533;-78
2022/04/18 07:13:54;;;;;;;3.30;1.60;;;6.70;1.40;;;7.46;87.27;95497.78;636029;216;31858;-77
2022/04/18 07:16:41;;;;;;;2.00;1.40;;;6.90;1.40;;;7.74;88.09;95500.77;647872;216;31591;-76
2022/04/18 07:19:24;;;;;;;1.50;1.35;;;7.00;1.40;;;7.94;87.37;95504.48;645284;212;31623;-78
2022/04/18 07:22:12;;;;;;;1.13;1.00;;;7.10;1.40;;;7.88;82.81;95497.47;621757;222;31912;-77
2022/04/18 07:24:59;;;;;;;2.58;1.45;;;7.20;1.40;;;8.00;78.48;95499.74;616286;224;31866;-77
2022/04/18 07:27:44;;;;;;;1.27;1.15;;;7.50;1.40;;;8.25;77.08;95495.22;649328;216;31548;-75
2022/04/18 07:30:30;;;;;;;1.30;1.20;;;7.70;1.40;;;8.57;76.04;95498.47;622635;226;32018;-77
2022/04/18 07:35:54;;;;;;;4.93;1.70;;;8.00;1.40;;;8.28;67.48;95504.69;645614;216;31560;-78
2022/04/18 07:49:06;;;;;;;1.70;1.02;;;8.20;1.40;;;9.09;66.57;95494.80;644127;216;31530;-76
2022/04/18 07:51:47;;;;;;;1.10;1.00;;;8.50;1.40;;;9.44;64.04;95495.98;617534;226;31874;-75
2022/04/18 07:54:32;;;;;;;1.40;1.03;;;8.80;1.40;;;9.15;61.99;95492.79;646313;216;31571;-76
2022/04/18 07:57:14;;;;;;;1.47;0.87;;;8.60;1.40;;;9.17;60.98;95495.20;620884;222;31906;-76
2022/04/18 07:59:55;;;;;;;1.10;1.00;;;8.60;1.40;;;9.16;60.76;95495.81;646554;216;31531;-76
2022/04/18 08:02:47;;;;;;;1.30;0.80;;;8.60;1.40;;;9.34;61.23;95500.58;646669;216;31658;-77
2022/04/18 08:05:31;;;;;;;1.40;0.90;;;8.80;1.40;;;9.83;61.51;95495.51;646857;215;31883;-77
2022/04/18 08:08:16;;;;;;;0.80;0.80;;;9.30;1.40;;;9.89;59.22;95497.11;640110;212;31686;-77
2022/04/18 08:11:01;;;;;;;2.00;0.90;;;9.30;1.40;;;9.82;59.16;95490.98;619646;222;32476;-77
2022/04/18 08:13:49;;;;;;;0.80;0.80;;;9.30;1.40;;;10.23;60.47;95495.52;632742;217;31871;-76
2022/04/18 08:16:32;;;;;;;1.30;1.10;;;9.70;1.40;;;10.17;60.14;95491.98;645945;216;31526;-76
2022/04/18 08:19:23;;;;;;;1.20;0.63;;;9.70;1.40;;;10.56;58.13;95494.44;646004;216;31520;-76
2022/04/18 08:24:42;;;;;;;1.58;1.00;;;10.00;1.40;;;10.97;56.95;95502.14;647628;216;31514;-78
2022/04/18 08:27:26;;;;;;;2.70;1.03;;;10.20;1.40;;;10.79;56.35;95498.89;622093;226;32212;-75
2022/04/18 08:30:17;;;;;;;1.37;1.27;;;10.20;1.40;;;11.26;55.55;95496.35;648983;216;31664;-78
2022/04/18 08:35:51;;;;;;;1.45;1.10;;;10.40;1.40;;;10.59;53.86;95488.47;617699;226;31991;-78
2022/04/18 08:38:32;;;;;;;1.60;1.23;;;10.10;1.40;;;11.59;59.21;95484.62;646779;216;31532;-77
2022/04/18 08:41:16;;;;;;;1.40;1.20;;;11.10;1.40;;;11.48;54.07;95485.67;649845;216;31489;-75
2022/04/18 08:44:04;;;;;;;1.40;0.90;;;10.80;1.40;;;11.42;54.26;95484.05;619953;226;31891;-78
2022/04/18 08:46:46;;;;;;;1.40;1.30;;;10.80;1.40;;;11.28;53.91;95483.16;647724;216;31563;-77
2022/04/18 08:57:53;;;;;;;1.20;1.10;;;12.10;1.40;;;11.72;48.94;95483.63;646234;216;32931;-75
2022/04/18 09:00:35;;;;;;;4.28;1.52;;;11.20;1.40;;;13.29;49.32;95484.33;646884;216;31573;-75
2022/04/18 09:03:17;;;;;;;1.40;1.00;;;13.60;1.40;;;13.85;47.55;95476.89;648135;216;31543;-75
2022/04/18 09:06:04;;;;;;;1.20;0.90;;;15.00;1.40;;;16.78;46.22;95470.31;645505;216;31610;-75
2022/04/18 09:08:58;;;;;;;1.20;1.00;;;18.60;1.40;;;16.81;41.68;95471.65;612021;222;42874;-79
2022/04/18 09:11:46;;;;;;;1.48;1.00;;;18.80;1.40;;;15.73;39.36;95469.92;648626;212;31736;-76
2022/04/18 09:14:28;;;;;;;1.50;1.10;;;16.80;1.40;;;15.43;41.45;95471.05;621048;222;31884;-75
2022/04/18 09:17:09;;;;;;;1.50;1.20;;;16.80;1.40;;;18.19;36.78;95463.80;646943;212;42138;-76
2022/04/18 09:19:52;;;;;;;1.30;1.08;;;18.60;1.40;;;15.98;40.84;95465.48;620206;226;31860;-76
2022/04/18 09:22:49;;;;;;;1.30;1.00;;;17.30;1.40;;;17.61;35.89;95456.60;617250;226;32130;-76
2022/04/18 09:25:31;;;;;;;1.95;1.10;;;17.80;1.40;;;20.25;38.42;95443.80;647092;216;31846;-75
2022/04/18 09:28:14;;;;;;;1.30;1.10;;;20.40;1.40;;;22.06;34.55;95446.27;648415;216;31859;-76
2022/04/18 09:31:01;;;;;;;1.10;0.90;;;21.70;1.40;;;19.89;32.37;95451.13;647070;212;31522;-78
2022/04/18 09:38:39;;;;;;;2.30;1.58;;;20.10;1.40;;;24.26;33.78;95426.14;619909;225;31910;-76
2022/04/18 09:41:24;;;;;;;1.50;1.40;;;21.50;1.40;;;19.07;32.68;95437.60;648189;216;31558;-76
2022/04/18 09:44:06;;;;;;;1.60;1.50;;;18.00;1.40;;;21.21;36.70;95436.14;617704;226;32053;-77
2022/04/18 09:46:53;;;;;;;1.90;1.40;;;20.70;1.40;;;25.25;32.01;95427.77;647286;212;31569;-78
2022/04/18 09:49:39;;;;;;;1.05;0.95;;;21.90;1.40;;;18.18;33.53;95439.83;620234;226;33181;-75
2022/04/18 09:52:23;;;;;;;1.70;1.08;;;18.30;1.40;;;21.29;33.61;95431.20;647710;216;32007;-76
2022/04/18 09:55:06;;;;;;;1.08;0.85;;;20.80;1.40;;;18.92;32.06;95435.28;645609;212;42201;-76
2022/04/18 09:57:52;;;;;;;1.67;1.30;;;18.90;1.40;;;21.73;30.62;95422.66;646839;216;31489;-76
2022/04/18 10:00:33;;;;;;;1.70;0.90;;;20.80;1.40;;;23.48;30.35;95423.02;648735;216;42276;-76
2022/04/18 10:13:47;;;;;;;2.90;1.27;;;21.90;1.40;;;23.31;28.82;95420.78;618815;222;31816;-76
2022/04/18 10:16:35;;;;;;;1.50;1.27;;;21.70;1.40;;;26.46;27.95;95412.81;618395;226;32493;-79
2022/04/18 10:19:54;;;;;;;1.35;1.00;;;23.50;1.40;;;26.85;25.11;95409.34;644590;216;32171;-77
2022/04/18 10:22:53;;;;;;;1.50;1.30;;;22.00;1.40;;;22.56;28.25;95425.01;652347;216;22596;-78
2022/04/18 10:25:46;;;;;;;1.73;1.30;;;21.50;1.40;;;22.35;30.20;95416.02;649933;216;31686;-77
2022/04/18 10:28:35;;;;;;;2.67;1.70;;;20.10;1.40;;;23.17;29.17;95413.66;643201;219;31534;-79
2022/04/18 10:31:24;;;;;;;1.80;1.23;;;21.70;1.40;;;26.69;27.54;95394.58;646292;212;31941;-77
2022/04/18 10:35:54;;;;;;;1.50;1.40;;;20.80;1.40;;;20.59;31.53;95406.31;645974;216;31522;-77
2022/04/18 10:38:37;;;;;;;1.58;1.20;;;20.00;1.40;;;24.93;28.12;95402.50;619852;226;32061;-76
2022/04/18 10:43:15;;;;;;;1.83;1.50;;;22.40;1.40;;;23.53;28.84;95395.84;644698;216;31548;-77
2022/04/18 10:46:12;;;;;;;1.70;1.40;;;20.80;1.40;;;23.58;28.10;95385.20;647344;216;32180;-77
2022/04/18 10:48:56;;;;;;;1.60;1.37;;;21.60;1.40;;;25.98;27.62;95387.05;648268;212;32113;-77
2022/04/18 10:51:40;;;;;;;1.42;1.33;;;22.50;1.40;;;22.00;29.15;95390.05;649260;212;31705;-76
2022/04/18 10:54:30;;;;;;;1.60;1.50;;;20.00;1.40;;;26.38;26.94;95377.20;646188;212;31656;-78
2022/04/18 10:57:18;;;;;;;4.50;1.48;;;22.80;1.40;;;19.53;32.04;95386.47;642491;216;31584;-77
2022/04/18 10:59:59;;;;;;;1.40;1.10;;;19.90;1.40;;;23.34;29.91;95381.17;649252;212;31510;-77
2022/04/18 11:02:43;;;;;;;1.60;1.50;;;21.90;1.40;;;19.71;30.89;95387.43;646679;212;31505;-76
2022/04/18 11:05:38;;;;;;;1.77;1.30;;;19.30;1.40;;;20.61;30.72;95384.80;621446;226;31826;-76
2022/04/18 11:08:23;;;;;;;1.50;1.20;;;20.30;1.40;;;24.09;27.92;95371.12;630451;217;32238;-76
2022/04/18 11:11:17;;;;;;;2.50;1.00;;;21.80;1.40;;;27.75;26.71;95359.51;646730;212;31901;-78
2022/04/18 11:14:14;;;;;;;1.70;1.00;;;23.10;1.40;;;27.10;24.52;95359.61;646168;216;31528;-77
2022/04/18 11:17:00;;;;;;;1.85;1.10;;;23.70;1.40;;;27.94;25.09;95360.16;620341;222;33571;-79
2022/04/18 11:19:44;;;;;;;1.55;1.17;;;23.70;1.40;;;28.30;24.20;95362.41;646373;212;31554;-77
2022/04/18 11:22:32;;;;;;;1.30;1.17;;;22.30;1.40;;;28.26;23.53;95358.03;645782;216;42753;-77
2022/04/18 11:25:14;;;;;;;1.45;0.98;;;22.30;1.40;;;23.10;25.02;95373.32;649490;212;42733;-76
2022/04/18 11:28:05;;;;;;;3.10;1.30;;;21.00;1.40;;;24.14;26.68;95366.32;645490;216;31499;-79
2022/04/18 11:30:53;;;;;;;1.35;1.25;;;21.60;1.40;;;25.82;23.52;95364.06;645172;212;31620;-77
2022/04/18 11:35:51;;;;;;;1.10;1.00;;;21.00;1.40;;;21.13;27.04;95366.58;647423;216;32049;-76
2022/04/18 11:38:33;;;;;;;1.52;1.25;;;19.90;1.40;;;25.78;24.92;95354.42;647261;212;31587;-77
2022/04/18 11:41:16;;;;;;;1.80;1.15;;;21.80;1.40;;;26.16;25.77;95352.11;646778;216;31937;-79
2022/04/18 11:44:02;;;;;;;1.30;1.02;;;22.70;1.40;;;28.95;22.94;95345.96;619553;226;31823;-78
2022/04/18 11:46:50;;;;;;;2.30;1.12;;;23.80;1.40;;;29.99;22.76;95344.16;645523;212;32181;-77
2022/04/18 11:49:35;;;;;;;2.17;1.17;;;23.40;1.40;;;30.43;21.34;95337.81;648040;216;31584;-77
2022/04/18 11:52:19;;;;;;;1.35;1.00;;;23.60;99.90;;;28.90;22.81;95333.81;648962;216;31492;-77
2022/04/18 11:55:05;;;;;;;1.42;1.00;;;23.10;99.90;;;30.39;21.87;95335.42;645196;216;32219;-77
2022/04/18 11:57:53;;;;;;;1.40;1.17;;;24.00;1.40;;;30.25;21.47;95330.30;644804;216;31752;-77
2022/04/18 12:09:16;;;;;;;1.12;0.98;;;23.40;1.40;;;30.75;21.67;95324.22;621113;226;32338;-79
2022/04/18 12:12:02;;;;;;;1.40;1.10;;;23.80;1.40;;;23.49;23.56;95334.88;643194;216;31509;-77
2022/04/18 12:14:47;;;;;;;1.92;1.70;;;19.10;1.40;;;23.88;26.12;95324.81;645804;218;32092;-78
2022/04/18 12:17:35;;;;;;;1.60;1.00;;;20.20;1.40;;;27.46;23.87;95314.70;643809;216;31517;-77
2022/04/18 12:20:24;;;;;;;2.50;1.30;;;22.60;1.40;;;26.91;24.20;95311.72;646129;216;31645;-79
2022/04/18 12:23:08;;;;;;;1.85;0.95;;;22.10;1.40;;;26.90;23.19;95307.15;645862;216;31632;-77
2022/04/18 12:25:51;;;;;;;1.90;1.20;;;21.90;1.40;;;20.99;26.12;95324.02;651892;216;31476;-77
2022/04/18 12:28:32;;;;;;;1.42;1.20;;;18.50;1.40;;;25.23;23.13;95310.41;644812;216;31589;-77
2022/04/18 12:31:14;;;;;;;1.92;1.30;;;20.60;1.40;;;28.17;22.84;95298.95;647790;216;32001;-77
2022/04/18 12:35:54;;;;;;;1.17;1.07;;;23.30;1.40;;;30.18;21.84;95293.03;647457;212;31516;-77
2022/04/18 12:38:36;;;;;;;1.50;1.08;;;23.80;1.40;;;29.77;21.10;95294.66;646912;216;31673;-76
2022/04/18 12:41:23;;;;;;;1.50;0.82;;;22.60;1.40;;;30.89;20.51;95289.56;645053;212;31455;-77
2022/04/18 12:44:12;;;;;;;0.80;0.80;;;23.30;1.40;;;29.03;22.11;95297.39;648242;216;31748;-78
2022/04/18 12:47:02;;;;;;;1.85;1.10;;;23.00;1.40;;;27.04;21.64;95292.58;646051;216;31531;-76
2022/04/18 12:49:41;;;;;;;1.10;1.00;;;21.40;1.40;;;28.73;21.42;95291.80;621868;226;31915;-78
2022/04/18 12:52:25;;;;;;;1.00;0.90;;;21.70;1.40;;;24.27;22.06;95300.34;648612;216;31584;-75
2022/04/18 12:55:08;;;;;;;1.20;0.80;;;19.90;1.40;;;27.51;21.45;95288.67;647920;216;31495;-76
2022/04/18 12:57:50;;;;;;;1.65;1.10;;;21.70;1.40;;;29.52;20.88;95283.65;647205;216;31659;-75